Time;durP1;ratioP1;P1;durP2;ratioP2;P2;SDS_P1;SDS_P2;PMS_P1;PMS_P2;Temp;Humidity;BMP_temperature;BMP_pressure;BME280_temperature;BME280_humidity;BME280_pressure;Samples;Min_cycle;Max_cycle;Signal;HPM_P1;HPM_P2
2022/11/05 00:11:02;;;;;;;5.50;5.40;;;10.30;99.90;;;;;;4889587;29;20467;-81
2022/11/05 00:19:10;;;;;;;5.87;5.57;;;10.40;99.90;;;;;;4885195;29;20470;-83
2022/11/05 00:27:12;;;;;;;5.53;5.43;;;10.40;99.90;;;;;;4887111;29;20573;-81
2022/11/05 00:29:40;;;;;;;5.40;5.30;;;10.60;81.10;;;;;;4881355;29;20553;-83
2022/11/05 00:32:08;;;;;;;5.40;5.20;;;10.50;99.90;;;;;;4885222;29;20566;-80
2022/11/05 00:34:36;;;;;;;5.30;5.20;;;10.60;1.00;;;;;;4886171;29;20490;-79
2022/11/05 00:37:05;;;;;;;5.53;5.33;;;10.50;21.50;;;;;;4887997;29;20467;-79
2022/11/05 00:39:33;;;;;;;5.40;5.30;;;10.50;1.00;;;;;;4888182;29;20470;-79
2022/11/05 00:45:03;;;;;;;5.23;5.13;;;10.30;99.90;;;;;;4887625;29;20512;-79
2022/11/05 00:50:20;;;;;;;5.33;5.23;;;10.40;99.90;;;;;;4885055;29;20689;-80
2022/11/05 00:52:56;;;;;;;5.13;5.03;;;10.50;99.90;;;;;;4883796;29;20481;-80
2022/11/05 00:55:28;;;;;;;5.53;5.27;;;10.40;99.90;;;;;;4889142;29;20493;-78
2022/11/05 00:57:57;;;;;;;5.50;5.20;;;10.50;99.90;;;;;;4883993;29;20557;-79
2022/11/05 01:00:28;;;;;;;5.50;5.30;;;10.50;99.90;;;;;;4890264;29;20465;-81
2022/11/05 01:03:01;;;;;;;5.13;5.03;;;10.30;1.00;;;;;;4891899;29;20739;-80
2022/11/05 01:05:31;;;;;;;6.30;5.80;;;10.40;1.00;;;;;;4893204;29;20974;-84
2022/11/05 01:08:01;;;;;;;5.40;5.30;;;10.50;1.00;;;;;;4884847;29;20539;-81
2022/11/05 01:10:29;;;;;;;5.17;5.07;;;10.40;89.90;;;;;;4888808;29;20869;-80
2022/11/05 01:12:58;;;;;;;5.30;5.20;;;10.40;99.90;;;;;;4886954;29;20455;-80
2022/11/05 01:15:28;;;;;;;4.70;4.60;;;10.20;99.90;;;;;;4889639;29;20499;-79
2022/11/05 01:17:56;;;;;;;5.20;4.90;;;10.40;99.90;;;;;;4889107;29;21058;-80
2022/11/05 01:20:24;;;;;;;5.43;5.33;;;10.20;1.00;;;;;;4893217;29;21180;-81
2022/11/05 01:22:52;;;;;;;5.20;5.00;;;10.10;99.90;;;;;;4885024;29;20459;-79
2022/11/05 01:25:20;;;;;;;5.10;5.00;;;10.30;36.70;;;;;;4888456;29;20494;-79
2022/11/05 01:27:49;;;;;;;4.80;4.70;;;10.40;99.90;;;;;;4887809;29;20463;-80
2022/11/05 01:30:17;;;;;;;5.00;4.90;;;10.40;1.00;;;;;;4886371;29;20526;-80
2022/11/05 01:32:46;;;;;;;5.03;4.93;;;10.40;1.00;;;;;;4887674;29;20502;-79
2022/11/05 01:35:16;;;;;;;5.30;5.20;;;10.20;1.00;;;;;;4889535;29;20569;-81
2022/11/05 01:37:45;;;;;;;5.10;5.00;;;10.30;99.90;;;;;;4885803;29;20463;-80
2022/11/05 01:40:15;;;;;;;5.80;5.60;;;10.10;99.90;;;;;;4885388;29;20476;-80
2022/11/05 01:42:44;;;;;;;5.60;5.27;;;10.10;99.90;;;;;;4888188;29;20466;-80
2022/11/05 01:45:15;;;;;;;5.50;5.40;;;10.10;1.00;;;;;;4886775;29;20505;-80
2022/11/05 01:47:55;;;;;;;5.30;5.20;;;10.20;99.90;;;;;;4887835;29;20987;-80
2022/11/05 01:50:30;;;;;;;5.30;5.20;;;10.10;1.00;;;;;;4885205;29;20475;-80
2022/11/05 01:53:03;;;;;;;5.43;5.33;;;10.10;99.90;;;;;;4884747;29;20450;-80
2022/11/05 01:55:36;;;;;;;5.40;5.30;;;10.00;1.00;;;;;;4886927;29;20943;-79
2022/11/05 01:58:07;;;;;;;5.53;5.40;;;10.30;1.00;;;;;;4897501;29;20559;-82
2022/11/05 02:00:36;;;;;;;5.10;5.00;;;10.30;1.00;;;;;;4884429;29;20465;-81
2022/11/05 02:03:06;;;;;;;5.30;5.20;;;10.50;99.90;;;;;;4883011;29;20442;-82
2022/11/05 02:05:35;;;;;;;5.40;5.20;;;10.40;99.90;;;;;;4896975;29;20483;-82
2022/11/05 02:08:03;;;;;;;5.77;5.63;;;10.30;99.90;;;;;;4883947;29;20469;-82
2022/11/05 02:10:33;;;;;;;5.80;5.60;;;10.40;99.90;;;;;;4884390;29;20461;-80
2022/11/05 02:13:02;;;;;;;5.60;5.50;;;10.30;99.90;;;;;;4888490;29;20562;-82
2022/11/05 02:15:51;;;;;;;5.00;4.90;;;10.40;99.90;;;;;;4886923;29;20485;-80
2022/11/05 02:18:31;;;;;;;5.83;5.63;;;10.30;99.90;;;;;;4886546;29;20457;-81
2022/11/05 02:21:26;;;;;;;5.17;5.07;;;10.10;99.90;;;;;;4885442;29;20456;-80
2022/11/05 02:24:31;;;;;;;5.23;5.00;;;10.10;90.00;;;;;;4887085;29;20967;-78
2022/11/05 02:27:11;;;;;;;4.90;4.80;;;10.20;99.90;;;;;;4822013;29;20573;-80
2022/11/05 02:30:23;;;;;;;4.80;4.70;;;10.20;99.90;;;;;;4888553;29;20479;-79
2022/11/05 02:33:23;;;;;;;5.10;5.00;;;10.00;1.00;;;;;;4885980;29;20498;-81
2022/11/05 02:36:28;;;;;;;5.07;4.97;;;10.00;99.90;;;;;;4882899;29;20483;-78
2022/11/05 02:39:07;;;;;;;5.13;5.03;;;10.10;1.00;;;;;;4829402;29;20563;-78
2022/11/05 02:41:47;;;;;;;5.13;4.93;;;10.10;1.00;;;;;;4885296;29;20462;-79
2022/11/05 02:44:26;;;;;;;5.20;5.10;;;10.00;99.90;;;;;;4886317;29;20458;-80
2022/11/05 02:47:04;;;;;;;5.60;5.30;;;10.00;29.80;;;;;;4887104;29;20514;-79
2022/11/05 02:49:40;;;;;;;5.40;5.30;;;10.00;1.00;;;;;;4879386;29;20454;-80
2022/11/05 02:52:15;;;;;;;5.10;5.00;;;10.10;99.90;;;;;;4880694;29;20991;-81
2022/11/05 02:54:47;;;;;;;5.57;5.47;;;10.20;1.00;;;;;;4876588;29;20610;-79
2022/11/05 02:57:18;;;;;;;6.00;5.90;;;10.20;99.90;;;;;;4881943;29;20556;-80
2022/11/05 02:59:47;;;;;;;6.30;6.10;;;10.10;99.90;;;;;;4875816;29;20964;-80
2022/11/05 03:02:16;;;;;;;7.03;6.60;;;10.10;99.90;;;;;;4882974;29;20535;-81
2022/11/05 03:04:45;;;;;;;6.50;6.40;;;10.10;99.90;;;;;;4882311;29;20488;-80
2022/11/05 03:07:28;;;;;;;6.53;6.33;;;10.10;99.90;;;;;;4880405;29;20487;-80
2022/11/05 03:10:27;;;;;;;6.90;6.70;;;10.10;1.00;;;;;;4882196;29;20513;-79
2022/11/05 03:13:08;;;;;;;6.87;6.63;;;10.10;1.00;;;;;;4882637;29;20552;-81
2022/11/05 03:15:48;;;;;;;6.70;6.50;;;10.20;99.90;;;;;;4881976;29;20499;-79
2022/11/05 03:18:26;;;;;;;6.70;6.50;;;10.20;99.90;;;;;;4887251;29;20499;-81
2022/11/05 03:21:02;;;;;;;6.80;6.60;;;10.30;99.90;;;;;;4887818;29;20970;-81
2022/11/05 03:23:36;;;;;;;6.93;6.73;;;10.10;1.00;;;;;;4897234;29;20468;-81
2022/11/05 03:26:10;;;;;;;6.80;6.70;;;10.00;1.00;;;;;;4881595;29;20488;-80
2022/11/05 03:28:43;;;;;;;6.90;6.80;;;10.00;10.10;;;;;;4887714;29;20463;-81
2022/11/05 03:31:14;;;;;;;6.63;6.53;;;10.00;99.90;;;;;;4887712;29;20500;-80
2022/11/05 03:33:45;;;;;;;6.90;6.50;;;10.30;99.90;;;;;;4892003;29;20465;-80
2022/11/05 03:36:18;;;;;;;6.50;6.40;;;10.30;99.90;;;;;;4888172;29;20614;-80
2022/11/05 03:38:51;;;;;;;6.50;6.40;;;10.40;1.00;;;;;;4888013;29;20587;-83
2022/11/05 03:41:21;;;;;;;6.40;6.30;;;10.20;99.90;;;;;;4888858;29;20970;-80
2022/11/05 03:43:54;;;;;;;6.53;6.43;;;10.20;92.80;;;;;;4890511;29;20684;-79
2022/11/05 03:46:28;;;;;;;6.50;6.40;;;10.30;1.00;;;;;;4890426;29;20493;-80
2022/11/05 03:48:59;;;;;;;6.57;6.47;;;10.30;1.00;;;;;;4891585;29;20467;-80
2022/11/05 03:51:42;;;;;;;6.70;6.50;;;10.10;99.90;;;;;;4890947;29;20466;-78
2022/11/05 03:54:11;;;;;;;6.30;6.20;;;10.20;99.90;;;;;;4886249;29;20471;-78
2022/11/05 03:56:45;;;;;;;6.40;6.30;;;10.30;38.90;;;;;;4887423;29;20459;-82
2022/11/05 03:59:14;;;;;;;6.20;6.10;;;10.30;42.80;;;;;;4886642;29;20535;-80
2022/11/05 04:01:43;;;;;;;6.63;6.50;;;10.10;99.90;;;;;;4886997;29;20469;-80
2022/11/05 04:04:13;;;;;;;6.67;6.57;;;10.00;1.00;;;;;;4885364;29;20478;-82
2022/11/05 04:14:57;;;;;;;6.80;6.70;;;10.00;62.50;;;;;;4862478;29;20547;-80
2022/11/05 04:17:24;;;;;;;7.00;6.80;;;9.90;99.90;;;;;;4893457;29;20524;-81
2022/11/05 04:25:24;;;;;;;6.90;6.80;;;10.00;99.90;;;;;;4889568;29;20509;-80
2022/11/05 04:27:58;;;;;;;7.57;7.37;;;9.90;99.90;;;;;;4894385;29;20485;-80
2022/11/05 04:30:26;;;;;;;7.30;7.10;;;10.00;99.90;;;;;;4894012;29;20487;-81
2022/11/05 04:32:59;;;;;;;6.70;6.60;;;10.00;99.90;;;;;;4891916;29;20539;-83
2022/11/05 04:35:30;;;;;;;7.50;7.30;;;10.00;99.90;;;;;;4884617;29;20649;-82
2022/11/05 04:37:58;;;;;;;7.20;7.07;;;9.90;99.90;;;;;;4885450;29;20463;-80
2022/11/05 04:40:27;;;;;;;7.47;7.30;;;10.00;99.90;;;;;;4886594;29;20452;-81
2022/11/05 04:42:56;;;;;;;7.80;7.50;;;10.00;99.90;;;;;;4887512;29;21004;-80
2022/11/05 04:45:25;;;;;;;8.07;7.87;;;10.00;99.90;;;;;;4886070;29;20557;-80
2022/11/05 04:47:54;;;;;;;7.50;7.40;;;10.00;99.90;;;;;;4886293;29;20505;-82
2022/11/05 04:50:22;;;;;;;8.00;7.80;;;10.00;99.90;;;;;;4885946;29;20551;-82
2022/11/05 04:52:52;;;;;;;8.27;8.00;;;10.10;99.90;;;;;;4883776;29;20854;-83
2022/11/05 04:55:21;;;;;;;7.70;7.50;;;10.00;99.90;;;;;;4889863;29;21271;-80
2022/11/05 04:57:49;;;;;;;7.70;7.50;;;10.10;99.90;;;;;;4880121;29;20458;-80
2022/11/05 05:00:19;;;;;;;7.90;7.70;;;10.10;99.90;;;;;;4883311;29;20958;-81
2022/11/05 05:02:48;;;;;;;7.30;7.20;;;10.10;99.90;;;;;;4886041;29;20475;-78
2022/11/05 05:05:16;;;;;;;7.50;7.30;;;10.10;99.90;;;;;;4888786;29;20466;-81
2022/11/05 05:07:44;;;;;;;7.80;7.60;;;10.00;99.90;;;;;;4884628;29;20577;-80
2022/11/05 05:10:14;;;;;;;7.57;7.37;;;10.00;99.90;;;;;;4886198;29;20465;-81
2022/11/05 05:12:42;;;;;;;7.67;7.47;;;10.10;99.90;;;;;;4886783;29;20473;-78
2022/11/05 05:15:10;;;;;;;7.23;7.13;;;10.10;99.90;;;;;;4888423;29;20491;-80
2022/11/05 05:17:39;;;;;;;7.63;7.53;;;10.10;99.90;;;;;;4891963;29;20450;-82
2022/11/05 05:22:53;;;;;;;8.10;7.90;;;10.00;99.90;;;;;;4887474;29;20468;-79
2022/11/05 05:25:23;;;;;;;8.03;7.83;;;9.90;99.90;;;;;;4888457;29;20481;-79
2022/11/05 05:27:52;;;;;;;7.30;7.10;;;10.00;99.90;;;;;;4888977;29;20470;-81
2022/11/05 05:30:20;;;;;;;7.37;7.27;;;10.20;99.90;;;;;;4888132;29;20460;-78
2022/11/05 05:32:48;;;;;;;7.60;7.30;;;10.30;43.70;;;;;;4887835;29;20490;-79
2022/11/05 05:35:17;;;;;;;7.90;7.70;;;10.10;1.00;;;;;;4886377;29;20867;-78
2022/11/05 05:37:45;;;;;;;7.60;7.50;;;10.20;99.90;;;;;;4887351;29;20864;-80
2022/11/05 05:40:13;;;;;;;7.77;7.57;;;10.20;99.90;;;;;;4888111;29;20908;-79
2022/11/05 05:42:43;;;;;;;7.50;7.40;;;10.30;99.90;;;;;;4881702;29;20534;-80
2022/11/05 05:45:12;;;;;;;7.40;7.30;;;10.30;1.00;;;;;;4887711;29;21116;-80
2022/11/05 05:47:40;;;;;;;7.60;7.40;;;10.40;1.00;;;;;;4883320;29;20497;-81
2022/11/05 05:50:08;;;;;;;7.97;7.50;;;10.20;99.90;;;;;;4887358;29;20975;-81
2022/11/05 05:52:36;;;;;;;7.83;7.53;;;10.40;1.00;;;;;;4888032;29;21157;-78
2022/11/05 05:55:05;;;;;;;7.77;7.57;;;10.30;76.20;;;;;;4883138;29;20577;-78
2022/11/05 05:57:34;;;;;;;7.73;7.53;;;10.20;1.00;;;;;;4888759;29;20455;-78
2022/11/05 06:00:04;;;;;;;7.73;7.53;;;10.20;98.30;;;;;;4885888;29;20560;-82
2022/11/05 06:02:33;;;;;;;8.20;8.00;;;10.10;1.00;;;;;;4880149;29;20463;-78
2022/11/05 06:05:01;;;;;;;9.03;8.53;;;10.00;99.90;;;;;;4882653;29;21000;-80
2022/11/05 06:07:29;;;;;;;8.43;8.23;;;10.00;99.90;;;;;;4887864;29;20558;-80
2022/11/05 06:10:05;;;;;;;7.80;7.70;;;9.90;99.90;;;;;;4889101;29;20849;-80
2022/11/05 06:12:33;;;;;;;8.00;7.90;;;9.90;99.90;;;;;;4884294;29;20478;-80
2022/11/05 06:15:03;;;;;;;8.50;8.30;;;9.80;1.00;;;;;;4889045;29;20497;-81
2022/11/05 06:17:33;;;;;;;8.50;8.30;;;9.90;1.00;;;;;;4884649;29;20554;-81
2022/11/05 06:20:01;;;;;;;8.27;8.07;;;9.90;1.00;;;;;;4894046;29;20476;-82
2022/11/05 06:22:29;;;;;;;8.27;8.07;;;9.90;1.00;;;;;;4885168;29;20470;-81
2022/11/05 06:24:57;;;;;;;8.17;7.97;;;9.80;1.00;;;;;;4884241;29;20482;-80
2022/11/05 06:27:25;;;;;;;9.00;8.80;;;9.90;1.00;;;;;;4883618;29;21166;-79
2022/11/05 06:29:54;;;;;;;8.80;8.60;;;9.90;1.00;;;;;;4886056;29;20977;-78
2022/11/05 06:32:23;;;;;;;8.80;8.60;;;9.90;1.00;;;;;;4884936;29;20466;-80
2022/11/05 06:34:52;;;;;;;8.90;8.70;;;9.90;1.00;;;;;;4883789;29;20493;-79
2022/11/05 06:37:20;;;;;;;9.73;9.43;;;9.90;1.00;;;;;;4888655;29;20466;-78
2022/11/05 06:39:48;;;;;;;9.50;9.20;;;10.00;1.00;;;;;;4901866;29;20463;-80
2022/11/05 06:42:16;;;;;;;9.50;9.20;;;10.00;1.00;;;;;;4886806;29;20462;-79
2022/11/05 06:44:46;;;;;;;9.90;9.60;;;10.00;1.00;;;;;;4886651;29;20510;-78
2022/11/05 06:47:15;;;;;;;10.17;9.87;;;10.00;1.00;;;;;;4882201;29;20555;-80
2022/11/05 06:49:44;;;;;;;10.30;9.80;;;9.90;1.00;;;;;;4885551;29;20943;-81
2022/11/05 06:52:14;;;;;;;10.27;9.97;;;10.10;1.00;;;;;;4884921;29;20512;-78
2022/11/05 06:54:42;;;;;;;11.17;10.77;;;10.00;1.00;;;;;;4885568;29;20490;-80
2022/11/05 06:57:11;;;;;;;10.80;10.37;;;10.10;1.00;;;;;;4879196;29;20466;-79
2022/11/05 06:59:40;;;;;;;12.23;11.67;;;10.10;1.00;;;;;;4884073;29;20556;-80
2022/11/05 07:02:12;;;;;;;11.40;11.00;;;10.10;99.90;;;;;;4889934;29;20482;-79
2022/11/05 07:04:40;;;;;;;11.87;11.37;;;10.00;1.00;;;;;;4886356;29;20480;-83
2022/11/05 07:07:10;;;;;;;12.13;11.43;;;10.10;1.00;;;;;;4884264;29;20985;-82
2022/11/05 07:09:41;;;;;;;12.63;11.93;;;10.00;1.00;;;;;;4882281;29;20578;-81
2022/11/05 07:12:10;;;;;;;12.70;12.20;;;10.00;1.00;;;;;;4884020;29;20207;-80
2022/11/05 07:14:38;;;;;;;12.73;12.13;;;10.00;1.00;;;;;;4885083;29;20586;-79
2022/11/05 07:17:06;;;;;;;13.53;12.90;;;10.00;1.00;;;;;;4887420;29;20459;-80
2022/11/05 07:19:34;;;;;;;14.03;13.33;;;10.00;1.00;;;;;;4884560;29;20487;-79
2022/11/05 07:22:05;;;;;;;14.27;13.67;;;10.00;1.00;;;;;;4891118;29;20458;-80
2022/11/05 07:24:35;;;;;;;15.37;14.50;;;10.10;1.00;;;;;;4887348;29;20493;-80
2022/11/05 07:27:03;;;;;;;15.20;14.30;;;10.00;1.00;;;;;;4881258;29;20465;-84
2022/11/05 07:29:31;;;;;;;17.70;16.50;;;10.00;1.00;;;;;;4884409;29;20952;-83
2022/11/05 07:31:59;;;;;;;14.30;13.60;;;10.20;99.90;;;;;;4881124;29;20191;-82
2022/11/05 07:34:28;;;;;;;14.17;13.47;;;10.30;1.00;;;;;;4889763;29;20488;-82
2022/11/05 07:36:56;;;;;;;13.77;13.10;;;10.40;99.90;;;;;;4882463;29;20530;-82
2022/11/05 07:39:24;;;;;;;12.97;12.47;;;10.30;99.90;;;;;;4890905;29;21062;-82
2022/11/05 07:41:56;;;;;;;13.43;12.90;;;10.30;1.00;;;;;;4885404;29;20988;-81
2022/11/05 07:44:24;;;;;;;12.60;12.07;;;10.20;1.00;;;;;;4884288;29;20730;-83
2022/11/05 07:46:52;;;;;;;12.20;11.70;;;10.30;1.00;;;;;;4882941;29;20479;-83
2022/11/05 07:49:22;;;;;;;12.77;12.07;;;10.10;1.00;;;;;;4886428;29;20485;-82
2022/11/05 07:51:50;;;;;;;12.07;11.57;;;10.20;99.90;;;;;;4884549;29;20562;-83
2022/11/05 07:54:19;;;;;;;12.60;12.10;;;10.20;99.90;;;;;;4885989;29;20469;-82
2022/11/05 07:56:47;;;;;;;13.37;12.87;;;10.30;99.90;;;;;;4881264;29;20473;-82
2022/11/05 07:59:17;;;;;;;13.83;13.13;;;10.30;81.00;;;;;;4883500;29;20459;-83
2022/11/05 08:01:45;;;;;;;14.70;14.00;;;10.20;1.00;;;;;;4883857;29;20810;-82
2022/11/05 08:04:16;;;;;;;14.13;13.50;;;10.20;1.00;;;;;;4886384;29;20947;-83
2022/11/05 08:06:44;;;;;;;12.73;12.23;;;10.20;1.00;;;;;;4878858;29;20482;-81
2022/11/05 08:09:12;;;;;;;14.47;13.73;;;10.20;1.00;;;;;;4885416;29;20485;-80
2022/11/05 08:11:41;;;;;;;13.23;12.63;;;10.10;99.90;;;;;;4882965;29;20591;-82
2022/11/05 08:14:09;;;;;;;13.70;13.03;;;10.00;99.90;;;;;;4889562;29;20462;-82
2022/11/05 08:16:38;;;;;;;13.70;13.00;;;10.10;1.00;;;;;;4888034;29;20550;-82
2022/11/05 08:19:06;;;;;;;12.63;11.97;;;10.00;99.90;;;;;;4886815;29;20527;-80
2022/11/05 08:21:34;;;;;;;10.80;10.40;;;9.90;99.90;;;;;;4889352;29;20477;-81
2022/11/05 08:24:02;;;;;;;11.33;10.83;;;9.80;1.00;;;;;;4888046;29;20450;-80
2022/11/05 08:26:30;;;;;;;11.00;10.50;;;10.00;1.00;;;;;;4885621;29;20467;-80
2022/11/05 08:28:59;;;;;;;10.37;10.00;;;9.80;34.80;;;;;;4887673;29;20513;-80
2022/11/05 08:31:28;;;;;;;10.23;9.83;;;9.90;99.90;;;;;;4889860;29;20534;-81
2022/11/05 08:33:57;;;;;;;10.37;9.97;;;9.90;1.00;;;;;;4890601;29;21044;-83
2022/11/05 08:36:29;;;;;;;10.93;10.33;;;9.90;99.90;;;;;;4885108;29;20591;-82
2022/11/05 08:38:58;;;;;;;10.40;10.00;;;10.10;1.00;;;;;;4886241;29;20464;-82
2022/11/05 08:41:26;;;;;;;10.87;10.37;;;10.10;99.90;;;;;;4888560;29;20455;-81
2022/11/05 08:43:55;;;;;;;10.07;9.67;;;10.20;99.90;;;;;;4885044;29;20464;-81
2022/11/05 08:46:23;;;;;;;9.60;9.30;;;10.20;1.00;;;;;;4884814;29;20499;-82
2022/11/05 08:48:52;;;;;;;10.30;9.90;;;10.20;99.90;;;;;;4885543;29;20466;-82
2022/11/05 08:51:21;;;;;;;10.37;9.77;;;10.20;1.00;;;;;;4882890;29;20471;-81
2022/11/05 08:53:49;;;;;;;10.20;9.90;;;10.20;8.10;;;;;;4886476;29;20482;-81
2022/11/05 08:56:18;;;;;;;9.70;9.30;;;10.40;1.00;;;;;;4888199;29;21073;-83
2022/11/05 08:58:46;;;;;;;9.27;8.97;;;10.50;1.00;;;;;;4887306;29;20474;-81
2022/11/05 09:01:15;;;;;;;9.23;8.83;;;10.40;1.00;;;;;;4886299;29;20488;-81
2022/11/05 09:03:43;;;;;;;9.63;9.20;;;10.50;99.90;;;;;;4886615;29;20482;-82
2022/11/05 09:06:11;;;;;;;10.27;9.87;;;10.50;99.90;;;;;;4886564;29;20479;-81
2022/11/05 09:08:41;;;;;;;10.47;9.97;;;10.50;99.90;;;;;;4883731;29;20476;-82
2022/11/05 09:11:09;;;;;;;10.47;10.07;;;10.60;1.00;;;;;;4888786;29;20538;-81
2022/11/05 09:13:37;;;;;;;9.97;9.67;;;10.60;1.00;;;;;;4887302;29;20477;-82
2022/11/05 09:16:06;;;;;;;10.60;10.10;;;10.50;99.90;;;;;;4887471;29;20488;-82
2022/11/05 09:18:35;;;;;;;9.73;9.43;;;10.50;99.90;;;;;;4889647;29;20474;-81
2022/11/05 09:21:03;;;;;;;9.60;9.30;;;10.50;99.90;;;;;;4885357;29;21009;-81
2022/11/05 09:23:31;;;;;;;10.60;10.20;;;10.50;1.00;;;;;;4889485;29;20474;-81
2022/11/05 09:26:01;;;;;;;10.07;9.67;;;10.40;57.50;;;;;;4887183;29;20576;-81
2022/11/05 09:28:30;;;;;;;11.77;11.17;;;10.60;1.00;;;;;;4884404;29;20470;-81
2022/11/05 09:30:59;;;;;;;10.77;10.37;;;10.50;99.90;;;;;;4885692;29;20496;-82
2022/11/05 09:33:27;;;;;;;9.97;9.43;;;10.50;99.90;;;;;;4877553;29;21335;-81
2022/11/05 09:35:59;;;;;;;9.77;9.47;;;10.50;1.00;;;;;;4890795;29;20494;-80
2022/11/05 09:38:28;;;;;;;11.33;10.83;;;10.70;10.30;;;;;;4886592;29;20491;-81
2022/11/05 09:40:59;;;;;;;11.30;10.90;;;10.60;99.90;;;;;;4891606;29;20490;-80
2022/11/05 09:43:34;;;;;;;10.00;9.70;;;10.60;39.50;;;;;;4890537;29;20464;-81
2022/11/05 09:46:09;;;;;;;10.43;10.00;;;10.60;99.90;;;;;;4890955;29;20489;-81
2022/11/05 09:48:39;;;;;;;10.50;10.00;;;10.60;99.90;;;;;;4895715;29;20455;-83
2022/11/05 09:51:07;;;;;;;10.40;9.90;;;10.50;99.90;;;;;;4895674;29;20475;-80
2022/11/05 09:53:39;;;;;;;11.93;11.33;;;10.60;1.00;;;;;;4887644;29;20474;-80
2022/11/05 09:56:19;;;;;;;11.27;10.67;;;10.60;99.90;;;;;;4890942;29;20548;-80
2022/11/05 09:58:53;;;;;;;11.90;11.30;;;10.60;1.00;;;;;;4886581;29;20472;-82
2022/11/05 10:01:25;;;;;;;12.83;12.03;;;10.60;1.00;;;;;;4894953;29;20500;-82
2022/11/05 10:03:57;;;;;;;12.60;12.00;;;10.50;46.20;;;;;;4889204;29;21385;-81
2022/11/05 10:06:27;;;;;;;12.20;11.60;;;10.50;99.90;;;;;;4893422;29;21331;-81
2022/11/05 10:09:02;;;;;;;12.50;11.80;;;10.40;1.00;;;;;;4888994;29;20471;-81
2022/11/05 10:11:37;;;;;;;12.10;11.60;;;10.50;99.90;;;;;;4889943;29;20494;-81
2022/11/05 10:14:13;;;;;;;12.90;12.10;;;10.50;1.00;;;;;;4893203;29;20468;-79
2022/11/05 10:16:45;;;;;;;13.27;12.50;;;10.50;99.90;;;;;;4890889;29;20458;-81
2022/11/05 10:19:20;;;;;;;13.00;12.30;;;10.60;1.00;;;;;;4891027;29;20453;-82
2022/11/05 10:21:49;;;;;;;12.47;11.87;;;10.60;1.00;;;;;;4889062;29;20860;-82
2022/11/05 10:24:34;;;;;;;13.63;12.83;;;10.90;1.00;;;;;;4889487;29;20497;-80
2022/11/05 10:27:02;;;;;;;13.60;12.90;;;11.10;99.90;;;;;;4891940;29;20499;-80
2022/11/05 10:29:34;;;;;;;15.30;14.60;;;11.60;99.90;;;;;;4893606;29;20956;-81
2022/11/05 10:32:06;;;;;;;15.17;14.53;;;15.20;1.00;;;;;;4892630;29;20463;-82
2022/11/05 10:34:38;;;;;;;15.27;14.57;;;16.30;99.90;;;;;;4890055;29;20464;-80
2022/11/05 10:37:06;;;;;;;14.73;14.03;;;19.80;99.90;;;;;;4887772;29;20491;-81
2022/11/05 10:39:35;;;;;;;13.57;12.97;;;19.60;99.90;;;;;;4888055;29;20462;-80
2022/11/05 10:42:19;;;;;;;12.40;11.90;;;16.40;99.90;;;;;;4882878;29;20455;-81
2022/11/05 10:44:57;;;;;;;12.63;12.03;;;14.70;99.90;;;;;;4889224;29;20497;-80
2022/11/05 10:47:56;;;;;;;12.30;11.90;;;13.80;99.90;;;;;;4895432;29;20464;-80
2022/11/05 10:50:26;;;;;;;12.60;12.00;;;13.50;99.90;;;;;;4894789;29;20566;-82
2022/11/05 10:52:58;;;;;;;14.30;13.60;;;13.50;99.90;;;;;;4895274;29;20459;-83
2022/11/05 10:55:29;;;;;;;12.90;12.30;;;13.30;1.00;;;;;;4897102;29;20520;-83
2022/11/05 10:58:09;;;;;;;12.50;12.00;;;13.20;1.00;;;;;;4898036;29;20469;-83
2022/11/05 11:00:38;;;;;;;12.07;11.47;;;12.80;1.00;;;;;;4899512;29;20476;-82
2022/11/05 11:03:41;;;;;;;11.63;11.07;;;12.50;1.00;;;;;;4895062;29;21102;-83
2022/11/05 11:06:22;;;;;;;12.03;11.47;;;12.30;1.00;;;;;;4887906;29;20574;-82
2022/11/05 11:08:52;;;;;;;11.50;10.80;;;12.10;1.00;;;;;;4892115;29;20459;-82
2022/11/05 11:11:30;;;;;;;12.87;12.07;;;11.80;1.00;;;;;;4889690;29;20500;-80
2022/11/05 11:14:05;;;;;;;14.20;13.30;;;11.70;99.90;;;;;;4885434;29;20816;-81
2022/11/05 11:16:38;;;;;;;13.10;12.30;;;11.70;99.90;;;;;;4885845;29;20509;-81
2022/11/05 11:19:25;;;;;;;13.60;12.80;;;11.60;99.90;;;;;;4873240;29;20486;-80
2022/11/05 11:22:12;;;;;;;12.27;11.57;;;11.60;99.90;;;;;;4877976;29;20598;-79
2022/11/05 11:24:42;;;;;;;12.63;11.93;;;11.60;99.90;;;;;;4884945;29;20517;-82
2022/11/05 11:27:14;;;;;;;13.10;12.27;;;11.70;99.90;;;;;;4886991;29;20460;-81
2022/11/05 11:29:47;;;;;;;14.07;13.30;;;11.60;99.90;;;;;;4886041;29;20930;-82
2022/11/05 11:32:20;;;;;;;12.67;12.03;;;11.50;99.90;;;;;;4885743;29;20496;-82
2022/11/05 11:34:53;;;;;;;12.13;11.60;;;11.50;99.90;;;;;;4888598;29;20490;-81
2022/11/05 11:37:26;;;;;;;12.43;11.73;;;11.60;99.90;;;;;;4893286;29;20968;-81
2022/11/05 11:39:57;;;;;;;12.83;12.13;;;11.50;99.90;;;;;;4884655;29;20816;-83
2022/11/05 11:42:31;;;;;;;12.30;11.60;;;11.40;99.90;;;;;;4889213;29;20993;-82
2022/11/05 11:45:01;;;;;;;12.73;11.93;;;11.40;99.90;;;;;;4882210;29;20497;-83
2022/11/05 11:47:32;;;;;;;14.67;13.77;;;11.40;1.00;;;;;;4889891;29;20464;-83
2022/11/05 11:50:01;;;;;;;12.43;11.63;;;11.40;99.90;;;;;;4882431;29;20738;-79
2022/11/05 11:52:31;;;;;;;13.20;12.20;;;11.30;99.90;;;;;;4882805;29;20483;-81
2022/11/05 11:55:20;;;;;;;12.23;11.53;;;11.30;99.90;;;;;;4898107;29;20485;-82
2022/11/05 11:57:51;;;;;;;10.73;10.13;;;11.30;92.60;;;;;;4894268;29;20472;-82
2022/11/05 12:00:20;;;;;;;12.20;11.60;;;11.50;27.40;;;;;;4889539;29;20466;-82
2022/11/05 12:03:10;;;;;;;11.90;11.30;;;11.50;99.90;;;;;;4888138;29;20502;-82
2022/11/05 12:05:47;;;;;;;12.00;11.30;;;11.60;8.10;;;;;;4897767;29;21093;-81
2022/11/05 12:08:36;;;;;;;12.27;11.50;;;11.40;1.00;;;;;;4892116;29;20927;-81
2022/11/05 12:11:15;;;;;;;11.70;11.00;;;11.40;1.00;;;;;;4893993;29;20478;-82
2022/11/05 12:13:57;;;;;;;10.93;10.23;;;11.40;1.00;;;;;;4893146;29;20514;-82
2022/11/05 12:16:55;;;;;;;10.30;9.70;;;11.60;1.00;;;;;;4892619;29;20493;-82
2022/11/05 12:19:46;;;;;;;9.90;9.40;;;11.60;1.00;;;;;;4888314;29;21341;-82
2022/11/05 12:22:23;;;;;;;10.40;9.80;;;11.50;1.00;;;;;;4885912;29;20473;-83
2022/11/05 12:25:15;;;;;;;10.80;10.00;;;11.60;1.00;;;;;;4888406;29;20501;-82
2022/11/05 12:28:02;;;;;;;10.67;9.87;;;11.50;1.00;;;;;;4882210;29;20522;-81
2022/11/05 12:30:39;;;;;;;9.97;9.40;;;11.50;1.00;;;;;;4884844;29;20465;-81
2022/11/05 12:33:30;;;;;;;10.57;10.07;;;11.30;1.00;;;;;;4886297;29;20454;-84
2022/11/05 12:36:08;;;;;;;10.40;9.80;;;11.50;1.00;;;;;;4887129;29;21086;-82
2022/11/05 12:39:04;;;;;;;9.93;9.33;;;11.50;1.00;;;;;;4899003;29;20570;-80
2022/11/05 12:41:37;;;;;;;9.07;8.37;;;11.50;1.00;;;;;;4859088;29;20567;-81
2022/11/05 12:44:17;;;;;;;9.83;9.33;;;11.60;1.00;;;;;;4884737;29;20452;-84
2022/11/05 12:46:58;;;;;;;10.80;10.17;;;11.70;1.00;;;;;;4878379;29;20471;-84
2022/11/05 12:49:38;;;;;;;10.80;10.27;;;11.80;1.00;;;;;;4885518;29;20550;-81
2022/11/05 12:52:35;;;;;;;10.30;9.70;;;11.70;1.00;;;;;;4883625;29;20466;-83
2022/11/05 12:55:09;;;;;;;11.07;10.30;;;11.70;1.00;;;;;;4884726;29;21003;-80
2022/11/05 12:57:42;;;;;;;10.90;10.27;;;11.70;1.00;;;;;;4884074;29;20958;-82
2022/11/05 13:00:18;;;;;;;9.57;9.07;;;11.50;1.00;;;;;;4889370;29;20975;-82
2022/11/05 13:02:52;;;;;;;10.63;9.83;;;11.60;1.00;;;;;;4888019;29;20454;-83
2022/11/05 13:05:34;;;;;;;10.33;9.73;;;11.60;1.00;;;;;;4891107;29;20810;-82
2022/11/05 13:08:08;;;;;;;10.73;9.90;;;11.60;1.00;;;;;;4891625;29;20870;-81
2022/11/05 13:10:41;;;;;;;10.57;9.83;;;11.60;1.00;;;;;;4894288;29;20873;-83
2022/11/05 13:13:15;;;;;;;9.33;8.83;;;11.40;1.00;;;;;;4885931;29;21067;-84
2022/11/05 13:15:50;;;;;;;9.63;8.93;;;11.30;1.00;;;;;;4886284;29;21012;-84
2022/11/05 13:18:24;;;;;;;9.10;8.60;;;11.30;1.00;;;;;;4889738;29;20469;-83
2022/11/05 13:20:54;;;;;;;10.13;9.50;;;11.30;1.00;;;;;;4885806;29;20463;-82
2022/11/05 13:23:31;;;;;;;10.53;9.70;;;11.20;1.00;;;;;;4890398;29;20454;-81
2022/11/05 13:26:05;;;;;;;10.93;10.13;;;11.30;1.00;;;;;;4891716;29;20495;-81
2022/11/05 13:28:44;;;;;;;11.80;11.10;;;11.30;1.00;;;;;;4887316;29;20472;-83
2022/11/05 13:31:18;;;;;;;11.70;10.77;;;11.40;1.00;;;;;;4887709;29;20535;-81
2022/11/05 13:33:49;;;;;;;11.10;10.40;;;11.40;1.00;;;;;;4889341;29;20459;-83
2022/11/05 13:39:16;;;;;;;11.60;10.70;;;11.30;1.00;;;;;;4887254;29;20498;-84
2022/11/05 13:41:58;;;;;;;10.93;9.93;;;11.50;1.00;;;;;;4887814;29;20467;-81
2022/11/05 13:44:56;;;;;;;11.30;10.47;;;11.50;1.00;;;;;;4886984;29;20470;-81
2022/11/05 13:47:38;;;;;;;10.17;9.37;;;11.40;1.00;;;;;;4888637;29;20458;-83
2022/11/05 13:50:28;;;;;;;10.27;9.43;;;11.20;1.00;;;;;;4886115;29;20464;-81
2022/11/05 13:53:12;;;;;;;9.97;9.17;;;11.30;1.00;;;;;;4887398;29;20767;-82
2022/11/05 13:55:57;;;;;;;9.30;8.60;;;11.30;1.00;;;;;;4889284;29;20478;-80
2022/11/05 13:58:41;;;;;;;9.07;8.50;;;11.30;1.00;;;;;;4887829;29;20454;-81